createdAt,value
2018-06-03T00:02:12.691Z,1.70
2018-06-03T00:07:16.261Z,2.30
2018-06-03T00:12:19.854Z,1.90
2018-06-03T00:17:23.351Z,1.87
2018-06-03T00:22:31.675Z,1.83
2018-06-03T00:27:35.332Z,1.90
2018-06-03T00:32:38.942Z,1.70
2018-06-03T00:37:42.389Z,2.23
2018-06-03T00:42:45.821Z,1.87
2018-06-03T00:47:49.327Z,2.10
2018-06-03T00:52:52.840Z,2.07
2018-06-03T00:57:56.327Z,2.10
2018-06-03T01:02:59.825Z,2.03
2018-06-03T01:08:03.347Z,1.90
2018-06-03T01:13:06.966Z,2.10
2018-06-03T01:18:10.417Z,1.90
2018-06-03T01:23:13.918Z,2.10
2018-06-03T01:28:17.486Z,1.90
2018-06-03T01:33:20.918Z,1.73
2018-06-03T01:38:24.490Z,1.80
2018-06-03T01:43:27.925Z,1.97
2018-06-03T01:48:31.376Z,1.97
2018-06-03T01:53:34.861Z,1.87
2018-06-03T01:58:38.325Z,1.80
2018-06-03T02:03:41.857Z,1.80
2018-06-03T02:08:45.304Z,1.90
2018-06-03T02:13:48.817Z,1.90
2018-06-03T02:18:52.288Z,2.17
2018-06-03T02:23:55.746Z,2.00
2018-06-03T02:28:59.179Z,1.80
2018-06-03T02:34:02.733Z,1.60
2018-06-03T02:39:06.676Z,1.70
2018-06-03T02:44:10.151Z,2.10
2018-06-03T02:49:13.590Z,1.90
2018-06-03T02:54:16.702Z,1.57
2018-06-03T02:59:20.182Z,1.70
2018-06-03T03:04:23.633Z,1.60
2018-06-03T03:09:27.080Z,2.00
2018-06-03T03:14:30.497Z,1.60
2018-06-03T03:19:33.962Z,1.80
2018-06-03T03:24:37.396Z,1.53
2018-06-03T03:29:40.837Z,1.60
2018-06-03T03:34:44.311Z,1.30
2018-06-03T03:39:47.399Z,1.30
2018-06-03T03:44:50.821Z,1.37
2018-06-03T03:49:54.229Z,1.30
2018-06-03T03:54:57.636Z,1.73
2018-06-03T04:00:01.054Z,1.43
2018-06-03T04:05:04.489Z,1.43
2018-06-03T04:10:07.968Z,1.50
2018-06-03T04:15:11.431Z,1.60
2018-06-03T04:20:14.864Z,1.77
2018-06-03T04:25:18.372Z,1.90
2018-06-03T04:30:21.806Z,1.80
2018-06-03T04:35:25.280Z,1.60
2018-06-03T04:40:28.661Z,1.70
2018-06-03T04:50:40.664Z,1.73
2018-06-03T04:55:43.777Z,1.77
2018-06-03T05:00:47.234Z,1.70
2018-06-03T05:05:50.637Z,1.73
2018-06-03T05:10:54.047Z,1.63
2018-06-03T05:15:57.479Z,1.60
2018-06-03T05:21:00.888Z,1.73
2018-06-03T05:26:04.303Z,1.70
2018-06-03T05:31:07.804Z,2.07
2018-06-03T05:36:11.222Z,1.87
2018-06-03T05:41:14.660Z,1.90
2018-06-03T05:46:18.100Z,2.00
2018-06-03T05:51:21.518Z,2.40
2018-06-03T05:56:24.939Z,2.27
2018-06-03T06:01:28.356Z,2.47
2018-06-03T06:06:31.781Z,2.70
2018-06-03T06:11:35.338Z,2.53
2018-06-03T06:16:38.790Z,3.50
2018-06-03T06:21:42.285Z,3.47
2018-06-03T06:26:45.696Z,3.40
2018-06-03T06:31:49.118Z,3.53
2018-06-03T06:36:52.553Z,3.67
2018-06-03T06:41:56.010Z,3.20
2018-06-03T06:46:59.452Z,4.20
2018-06-03T06:52:02.861Z,4.07
2018-06-03T06:57:06.294Z,4.37
2018-06-03T07:02:09.726Z,4.53
2018-06-03T07:07:13.145Z,4.77
2018-06-03T07:12:16.532Z,5.33
2018-06-03T07:17:19.969Z,5.60
2018-06-03T07:27:48.853Z,5.43
2018-06-03T07:32:51.970Z,4.50
2018-06-03T07:37:55.442Z,4.30
2018-06-03T07:42:58.869Z,4.70
2018-06-03T07:48:02.268Z,4.30
2018-06-03T07:53:05.742Z,4.37
2018-06-03T07:58:09.213Z,4.07
2018-06-03T08:03:12.713Z,3.07
2018-06-03T08:08:16.173Z,3.30
2018-06-03T08:13:19.716Z,2.43
2018-06-03T08:18:23.294Z,2.37
2018-06-03T08:23:26.753Z,2.00
2018-06-03T08:28:30.310Z,2.10
2018-06-03T08:33:33.817Z,2.23
2018-06-03T08:38:37.282Z,1.70
2018-06-03T08:43:40.753Z,2.07
2018-06-03T08:48:44.208Z,1.67
2018-06-03T08:53:47.693Z,2.23
2018-06-03T08:58:51.220Z,2.30
2018-06-03T09:03:54.688Z,1.93
2018-06-03T09:08:58.395Z,2.50
2018-06-03T09:14:01.941Z,2.03
2018-06-03T09:24:31.519Z,1.97
2018-06-03T09:29:35.171Z,1.90
2018-06-03T09:34:39.234Z,2.00
2018-06-03T09:39:42.878Z,2.00
2018-06-03T09:44:46.530Z,1.70
2018-06-03T09:49:50.137Z,1.57
2018-06-03T09:54:53.994Z,1.60
2018-06-03T09:59:57.677Z,1.90
2018-06-03T10:05:01.281Z,1.47
2018-06-03T10:10:05.162Z,1.43
2018-06-03T10:15:10.332Z,1.50
2018-06-03T10:20:14.092Z,1.67
2018-06-03T10:25:17.823Z,1.40
2018-06-03T10:30:21.841Z,1.50
2018-06-03T10:35:25.566Z,1.30
2018-06-03T10:40:29.223Z,1.30
2018-06-03T10:45:38.083Z,1.40
2018-06-03T10:50:41.877Z,1.20
2018-06-03T10:55:48.945Z,1.40
2018-06-03T11:00:54.767Z,1.20
2018-06-03T11:05:59.856Z,1.30
2018-06-03T11:11:03.680Z,1.20
2018-06-03T11:16:08.374Z,1.40
2018-06-03T11:21:15.042Z,1.30
2018-06-03T11:26:20.348Z,1.47
2018-06-03T11:31:26.742Z,1.50
2018-06-03T11:36:37.292Z,1.62
2018-06-03T11:41:43.924Z,1.40
2018-06-03T11:46:55.170Z,1.57
2018-06-03T11:52:00.285Z,1.62
2018-06-03T11:57:11.726Z,1.60
2018-06-03T12:02:17.532Z,1.37
2018-06-03T12:07:21.333Z,1.40
2018-06-03T12:12:32.281Z,1.40
2018-06-03T12:17:38.574Z,1.57
2018-06-03T12:22:44.701Z,1.55
2018-06-03T12:27:52.568Z,1.40
2018-06-03T12:32:58.008Z,1.62
2018-06-03T12:38:03.735Z,1.47
2018-06-03T12:43:15.278Z,1.60
2018-06-03T12:48:25.136Z,1.57
2018-06-03T12:53:35.075Z,1.62
2018-06-03T12:58:46.294Z,1.52
2018-06-03T13:03:59.747Z,1.75
2018-06-03T13:09:10.558Z,1.80
2018-06-03T13:14:14.392Z,1.57
2018-06-03T13:19:26.006Z,1.98
2018-06-03T13:24:34.706Z,2.08
2018-06-03T13:29:47.147Z,1.95
2018-06-03T13:35:06.108Z,1.87
2018-06-03T13:40:22.492Z,1.70
2018-06-03T13:45:32.250Z,2.05
2018-06-03T13:56:08.715Z,1.87
2018-06-03T14:01:20.139Z,1.80
2018-06-03T14:06:37.775Z,2.10
2018-06-03T14:11:56.523Z,1.90
2018-06-03T14:17:11.788Z,1.52
2018-06-03T14:28:23.687Z,1.85
2018-06-03T14:39:21.633Z,1.70
2018-06-03T14:44:43.628Z,1.90
2018-06-03T14:50:06.452Z,1.75
2018-06-03T15:00:51.468Z,2.00
2018-06-03T15:06:11.794Z,1.87
2018-06-03T15:11:20.476Z,2.00
2018-06-03T15:16:27.668Z,2.10
2018-06-03T15:21:34.954Z,2.25
2018-06-03T15:26:48.855Z,1.77
2018-06-03T15:31:57.310Z,2.40
2018-06-03T15:37:12.561Z,1.70
2018-06-03T15:42:24.622Z,1.98
2018-06-03T15:47:37.685Z,2.15
2018-06-03T15:52:46.921Z,2.30
2018-06-03T15:57:54.756Z,1.90
2018-06-03T16:03:12.019Z,2.05
2018-06-03T16:08:30.046Z,2.20
2018-06-03T16:13:48.116Z,2.35
2018-06-03T16:19:00.707Z,2.30
2018-06-03T16:24:10.760Z,1.90
2018-06-03T16:29:26.323Z,2.08
2018-06-03T16:43:33.285Z,1.67
2018-06-03T16:57:39.122Z,1.77
2018-06-03T17:08:23.679Z,1.50
2018-06-03T17:13:50.547Z,1.70
2018-06-03T17:19:16.284Z,1.80
2018-06-03T17:24:38.995Z,1.70
2018-06-03T17:29:54.702Z,1.80
2018-06-03T17:44:35.031Z,2.02
2018-06-03T17:49:49.355Z,1.65
2018-06-03T17:55:00.741Z,2.10
2018-06-03T18:00:11.607Z,1.73
2018-06-03T18:05:21.375Z,1.67
2018-06-03T18:10:32.574Z,2.03
2018-06-03T18:15:45.052Z,2.23
2018-06-03T18:20:54.301Z,2.23
2018-06-03T18:26:03.787Z,2.20
2018-06-03T18:31:14.772Z,2.43
2018-06-03T18:36:21.028Z,2.30
2018-06-03T18:41:24.701Z,2.43
2018-06-03T18:46:31.160Z,2.47
2018-06-03T18:51:34.923Z,2.90
2018-06-03T18:56:39.310Z,2.63
2018-06-03T19:01:48.085Z,2.60
2018-06-03T19:06:52.645Z,2.63
2018-06-03T19:11:56.356Z,2.70
2018-06-03T19:17:00.121Z,2.80
2018-06-03T19:22:05.664Z,2.60
2018-06-03T19:27:14.599Z,3.10
2018-06-03T19:32:19.652Z,3.27
2018-06-03T19:37:23.334Z,3.43
2018-06-03T19:42:27.137Z,3.53
2018-06-03T19:47:30.951Z,3.37
2018-06-03T19:52:34.561Z,3.60
2018-06-03T19:57:40.466Z,11.47
2018-06-03T20:02:44.165Z,3.77
2018-06-03T20:07:47.924Z,4.33
2018-06-03T20:12:51.614Z,3.63
2018-06-03T20:17:55.294Z,3.13
2018-06-03T20:22:59.050Z,3.37
2018-06-03T20:28:05.063Z,3.20
2018-06-03T20:33:08.785Z,3.60
2018-06-03T20:38:12.448Z,3.47
2018-06-03T20:43:16.127Z,3.53
2018-06-03T20:48:19.825Z,3.00
2018-06-03T20:53:23.373Z,3.07
2018-06-03T20:58:26.917Z,3.53
2018-06-03T21:03:31.425Z,2.93
2018-06-03T21:08:34.917Z,3.13
2018-06-03T21:13:38.453Z,3.63
2018-06-03T21:18:42.222Z,3.53
2018-06-03T21:23:50.163Z,3.57
2018-06-03T21:28:53.718Z,3.30
2018-06-03T21:33:57.396Z,3.30
2018-06-03T21:39:01.571Z,3.43
2018-06-03T21:44:05.095Z,3.67
2018-06-03T21:49:08.586Z,3.80
2018-06-03T21:54:12.354Z,3.77
2018-06-03T21:59:15.849Z,3.13
2018-06-03T22:04:19.273Z,3.27
2018-06-03T22:09:22.748Z,3.37
2018-06-03T22:14:26.251Z,3.70
2018-06-03T22:19:29.732Z,3.37
2018-06-03T22:24:33.197Z,3.27
2018-06-03T22:29:36.698Z,3.10
2018-06-03T22:34:40.309Z,3.17
2018-06-03T22:39:43.774Z,3.53
2018-06-03T22:44:47.258Z,4.13
2018-06-03T22:49:50.837Z,3.50
2018-06-03T22:54:54.289Z,3.90
2018-06-03T22:59:57.830Z,3.47
2018-06-03T23:05:01.246Z,3.90
2018-06-03T23:10:05.290Z,3.50
2018-06-03T23:15:09.565Z,4.03
2018-06-03T23:20:13.006Z,3.47
2018-06-03T23:25:16.413Z,3.87
2018-06-03T23:30:19.857Z,3.83
2018-06-03T23:35:23.323Z,3.20
2018-06-03T23:40:26.742Z,3.43
2018-06-03T23:45:30.173Z,3.27
2018-06-03T23:50:33.573Z,3.83
2018-06-03T23:55:37.993Z,4.03
